createdAt,value
2018-11-06T00:02:15.984Z,26.93
2018-11-06T00:04:49.250Z,25.93
2018-11-06T00:07:17.227Z,26.90
2018-11-06T00:09:45.254Z,23.37
2018-11-06T00:12:13.359Z,23.30
2018-11-06T00:14:41.529Z,23.00
2018-11-06T00:17:09.561Z,26.97
2018-11-06T00:19:37.514Z,25.40
2018-11-06T00:22:05.845Z,24.80
2018-11-06T00:24:33.854Z,22.07
2018-11-06T00:27:01.931Z,24.07
2018-11-06T00:29:29.880Z,46.57
2018-11-06T00:31:58.172Z,29.73
2018-11-06T00:34:26.137Z,32.17
2018-11-06T00:36:54.428Z,36.63
2018-11-06T00:39:22.731Z,39.20
2018-11-06T00:41:50.734Z,36.47
2018-11-06T00:44:18.769Z,37.43
2018-11-06T00:46:47.101Z,33.07
2018-11-06T00:49:15.144Z,31.67
2018-11-06T00:51:43.294Z,30.30
2018-11-06T00:54:11.195Z,31.40
2018-11-06T00:56:39.280Z,34.00
2018-11-06T00:59:07.418Z,29.70
2018-11-06T01:01:35.361Z,31.70
2018-11-06T01:04:08.615Z,28.67
2018-11-06T01:06:36.674Z,28.80
2018-11-06T01:09:06.300Z,26.83
2018-11-06T01:11:34.284Z,26.97
2018-11-06T01:14:02.431Z,33.47
2018-11-06T01:16:30.431Z,32.90
2018-11-06T01:18:58.442Z,30.27
2018-11-06T01:21:26.369Z,19.90
2018-11-06T01:23:54.399Z,19.47
2018-11-06T01:26:22.520Z,50.73
2018-11-06T01:28:50.553Z,22.50
2018-11-06T01:31:18.569Z,23.83
2018-11-06T01:33:46.852Z,27.57
2018-11-06T01:36:14.929Z,27.80
2018-11-06T01:38:43.091Z,22.37
2018-11-06T01:41:11.036Z,22.87
2018-11-06T01:43:39.106Z,22.07
2018-11-06T01:46:07.378Z,24.60
2018-11-06T01:48:35.399Z,24.87
2018-11-06T01:51:03.416Z,25.13
2018-11-06T01:53:31.441Z,29.43
2018-11-06T01:55:59.516Z,40.27
2018-11-06T01:58:27.634Z,25.83
2018-11-06T02:00:55.597Z,22.70
2018-11-06T02:03:25.132Z,28.77
2018-11-06T02:05:53.244Z,33.53
2018-11-06T02:08:21.301Z,27.53
2018-11-06T02:10:49.349Z,31.27
2018-11-06T02:13:17.471Z,30.27
2018-11-06T02:15:45.543Z,32.20
2018-11-06T02:18:13.589Z,25.33
2018-11-06T02:20:41.556Z,27.33
2018-11-06T02:23:09.609Z,31.23
2018-11-06T02:25:37.599Z,31.00
2018-11-06T02:28:05.716Z,28.33
2018-11-06T02:30:33.691Z,25.93
2018-11-06T02:33:01.707Z,29.80
2018-11-06T02:35:29.680Z,29.17
2018-11-06T02:37:57.773Z,28.03
2018-11-06T02:40:25.704Z,27.77
2018-11-06T02:42:53.789Z,29.57
2018-11-06T02:45:21.749Z,31.77
2018-11-06T02:47:49.861Z,21.70
2018-11-06T02:50:17.876Z,29.40
2018-11-06T02:52:45.853Z,30.13
2018-11-06T02:55:14.412Z,19.07
2018-11-06T02:57:42.865Z,20.63
2018-11-06T03:00:13.778Z,13.97
2018-11-06T03:02:42.206Z,28.27
2018-11-06T03:05:10.689Z,29.87
2018-11-06T03:07:38.889Z,32.80
2018-11-06T03:10:08.095Z,30.23
2018-11-06T03:12:36.105Z,25.37
2018-11-06T03:15:04.664Z,32.33
2018-11-06T03:17:32.685Z,20.93
2018-11-06T03:20:00.762Z,22.57
2018-11-06T03:22:28.766Z,22.60
2018-11-06T03:24:56.900Z,25.73
2018-11-06T03:27:24.943Z,21.37
2018-11-06T03:29:53.167Z,31.27
2018-11-06T03:32:21.180Z,22.23
2018-11-06T03:34:49.260Z,19.30
2018-11-06T03:37:17.235Z,18.80
2018-11-06T03:39:45.450Z,20.07
2018-11-06T03:42:13.527Z,19.97
2018-11-06T03:44:41.542Z,19.93
2018-11-06T03:47:09.527Z,18.63
2018-11-06T03:49:37.620Z,22.03
2018-11-06T03:52:05.850Z,18.43
2018-11-06T03:54:33.860Z,21.33
2018-11-06T03:57:01.810Z,25.37
2018-11-06T03:59:29.885Z,21.87
2018-11-06T04:01:57.906Z,25.27
2018-11-06T04:04:26.027Z,20.50
2018-11-06T04:06:54.060Z,23.17
2018-11-06T04:09:22.120Z,23.70
2018-11-06T04:11:50.110Z,20.77
2018-11-06T04:14:18.102Z,28.27
2018-11-06T04:16:46.082Z,34.33
2018-11-06T04:19:14.131Z,28.87
2018-11-06T04:21:42.126Z,24.53
2018-11-06T04:24:11.728Z,25.37
2018-11-06T04:26:40.389Z,28.30
2018-11-06T04:29:09.104Z,34.07
2018-11-06T04:31:37.945Z,27.53
2018-11-06T04:34:06.515Z,29.60
2018-11-06T04:36:34.527Z,32.07
2018-11-06T04:39:02.721Z,35.87
2018-11-06T04:41:30.677Z,36.63
2018-11-06T04:43:58.601Z,34.37
2018-11-06T04:46:26.617Z,31.23
2018-11-06T04:48:54.571Z,37.90
2018-11-06T04:51:22.605Z,36.93
2018-11-06T04:53:53.142Z,37.37
2018-11-06T04:56:21.150Z,38.80
2018-11-06T04:58:49.143Z,36.30
2018-11-06T05:01:17.167Z,35.53
2018-11-06T05:03:46.567Z,33.10
2018-11-06T05:06:15.616Z,35.80
2018-11-06T05:08:43.613Z,36.70
2018-11-06T05:11:11.648Z,38.60
2018-11-06T05:13:39.760Z,38.73
2018-11-06T05:16:07.820Z,40.43
2018-11-06T05:18:35.937Z,40.10
2018-11-06T05:21:04.654Z,40.87
2018-11-06T05:23:32.810Z,41.53
2018-11-06T05:26:01.074Z,41.07
2018-11-06T05:28:29.325Z,40.10
2018-11-06T05:30:57.550Z,40.30
2018-11-06T05:33:26.211Z,41.20
2018-11-06T05:35:54.471Z,40.57
2018-11-06T05:38:22.722Z,39.07
2018-11-06T05:40:59.345Z,38.77
2018-11-06T05:43:27.560Z,37.00
2018-11-06T05:45:56.079Z,38.40
2018-11-06T05:48:24.199Z,39.37
2018-11-06T05:50:52.463Z,39.47
2018-11-06T05:53:20.771Z,39.63
2018-11-06T05:55:49.379Z,36.30
2018-11-06T05:58:17.740Z,36.70
2018-11-06T06:00:46.233Z,34.37
2018-11-06T06:03:14.379Z,34.73
2018-11-06T06:05:42.779Z,32.60
2018-11-06T06:08:10.993Z,31.50
2018-11-06T06:10:39.699Z,33.97
2018-11-06T06:13:08.179Z,38.07
2018-11-06T06:15:36.532Z,27.93
2018-11-06T06:18:04.912Z,25.23
2018-11-06T06:20:33.212Z,24.03
2018-11-06T06:23:01.477Z,25.07
2018-11-06T06:25:29.846Z,29.40
2018-11-06T06:27:58.116Z,32.27
2018-11-06T06:30:26.426Z,33.40
2018-11-06T06:32:54.776Z,33.27
2018-11-06T06:35:23.117Z,34.73
2018-11-06T06:37:51.416Z,33.20
2018-11-06T06:40:19.616Z,33.77
2018-11-06T06:42:48.085Z,29.30
2018-11-06T06:45:17.609Z,24.67
2018-11-06T06:47:45.824Z,31.07
2018-11-06T06:50:15.216Z,31.33
2018-11-06T06:52:44.059Z,32.53
2018-11-06T06:55:13.373Z,36.40
2018-11-06T06:57:42.644Z,35.97
2018-11-06T07:00:13.324Z,28.97
2018-11-06T07:02:41.706Z,26.93
2018-11-06T07:05:11.544Z,24.70
2018-11-06T07:07:41.567Z,24.47
2018-11-06T07:10:11.549Z,23.47
2018-11-06T07:12:40.449Z,24.27
2018-11-06T07:15:11.321Z,24.37
2018-11-06T07:17:39.628Z,25.03
2018-11-06T07:20:11.153Z,24.30
2018-11-06T07:22:39.460Z,24.00
2018-11-06T07:25:08.983Z,25.60
2018-11-06T07:27:37.360Z,23.90
2018-11-06T07:30:07.830Z,24.83
2018-11-06T07:32:36.093Z,24.40
2018-11-06T07:35:05.440Z,25.03
2018-11-06T07:37:33.689Z,23.53
2018-11-06T07:40:02.309Z,24.17
2018-11-06T07:42:30.526Z,23.90
2018-11-06T07:44:58.769Z,22.43
2018-11-06T07:47:27.101Z,22.90
2018-11-06T07:49:55.429Z,24.37
2018-11-06T07:52:23.668Z,22.50
2018-11-06T07:54:51.866Z,22.80
2018-11-06T07:57:20.045Z,23.33
2018-11-06T07:59:48.725Z,22.37
2018-11-06T08:02:17.026Z,22.27
2018-11-06T08:04:45.266Z,21.60
2018-11-06T08:07:13.557Z,23.07
2018-11-06T08:09:41.802Z,21.77
2018-11-06T08:12:10.160Z,22.00
2018-11-06T08:14:38.410Z,21.80
2018-11-06T08:17:06.926Z,21.60
2018-11-06T08:19:35.066Z,21.93
2018-11-06T08:22:03.886Z,20.73
2018-11-06T08:24:32.106Z,20.63
2018-11-06T08:27:00.351Z,22.80
2018-11-06T08:29:28.468Z,22.20
2018-11-06T08:31:57.000Z,22.83
2018-11-06T08:34:24.966Z,22.50
2018-11-06T08:36:53.312Z,22.53
2018-11-06T08:39:21.606Z,22.23
2018-11-06T08:41:49.724Z,21.67
2018-11-06T08:44:17.999Z,20.83
2018-11-06T08:46:46.118Z,22.87
2018-11-06T08:49:14.413Z,22.50
2018-11-06T08:51:42.666Z,21.50
2018-11-06T08:54:10.889Z,21.30
2018-11-06T08:56:39.026Z,19.43
2018-11-06T08:59:07.315Z,20.60
2018-11-06T09:01:35.566Z,20.97
2018-11-06T09:04:03.834Z,20.80
2018-11-06T09:06:31.975Z,20.23
2018-11-06T09:09:00.337Z,20.13
2018-11-06T09:11:28.354Z,19.97
2018-11-06T09:13:56.597Z,19.60
2018-11-06T09:16:24.740Z,19.43
2018-11-06T09:18:52.977Z,20.00
2018-11-06T09:21:21.208Z,19.17
2018-11-06T09:23:49.369Z,19.60
2018-11-06T09:26:17.589Z,19.70
2018-11-06T09:28:45.869Z,21.20
2018-11-06T09:31:14.224Z,21.47
2018-11-06T09:33:42.464Z,19.87
2018-11-06T09:36:10.673Z,21.83
2018-11-06T09:38:38.993Z,21.37
2018-11-06T09:41:07.249Z,21.60
2018-11-06T09:43:35.673Z,22.77
2018-11-06T09:46:03.993Z,22.67
2018-11-06T09:48:32.345Z,22.57
2018-11-06T09:51:00.605Z,22.30
2018-11-06T09:53:28.906Z,21.93
2018-11-06T09:55:57.167Z,22.57
2018-11-06T09:58:25.465Z,23.17
2018-11-06T10:00:53.705Z,21.20
2018-11-06T10:03:22.052Z,23.97
2018-11-06T10:05:50.253Z,20.97
2018-11-06T10:08:18.653Z,21.30
2018-11-06T10:10:46.861Z,20.43
2018-11-06T10:13:15.045Z,22.67
2018-11-06T10:15:43.355Z,22.27
2018-11-06T10:18:11.561Z,21.43
2018-11-06T10:20:39.690Z,21.23
2018-11-06T10:23:07.942Z,22.43
2018-11-06T10:25:36.149Z,20.10
2018-11-06T10:28:04.869Z,20.07
2018-11-06T10:30:33.398Z,19.00
2018-11-06T10:33:01.654Z,20.90
2018-11-06T10:35:29.904Z,20.90
2018-11-06T10:37:58.221Z,18.97
2018-11-06T10:40:26.516Z,19.27
2018-11-06T10:42:54.646Z,19.53
2018-11-06T10:45:22.859Z,19.20
2018-11-06T10:47:51.013Z,18.97
2018-11-06T10:50:19.253Z,19.33
2018-11-06T10:52:48.121Z,20.07
2018-11-06T10:55:16.362Z,20.97
2018-11-06T10:57:44.602Z,18.97
2018-11-06T11:00:19.222Z,19.83
2018-11-06T11:02:52.805Z,18.10
2018-11-06T11:05:22.603Z,18.33
2018-11-06T11:07:50.842Z,19.03
2018-11-06T11:10:19.035Z,19.27
2018-11-06T11:12:47.233Z,21.13
2018-11-06T11:15:15.472Z,20.20
2018-11-06T11:17:43.764Z,19.47
2018-11-06T11:20:13.333Z,18.93
2018-11-06T11:22:42.069Z,18.67
2018-11-06T11:25:12.423Z,19.33
2018-11-06T11:27:41.067Z,18.77
2018-11-06T11:30:11.347Z,18.63
2018-11-06T11:32:40.452Z,17.77
2018-11-06T11:35:08.827Z,18.20
2018-11-06T11:37:37.157Z,18.60
2018-11-06T11:40:06.939Z,17.30
2018-11-06T11:42:35.167Z,17.87
2018-11-06T11:45:03.359Z,18.00
2018-11-06T11:47:31.574Z,17.70
2018-11-06T11:49:59.796Z,18.57
2018-11-06T11:52:28.034Z,19.00
2018-11-06T11:54:56.334Z,17.73
2018-11-06T11:57:24.534Z,18.30
2018-11-06T11:59:52.873Z,20.03
2018-11-06T12:02:21.166Z,18.30
2018-11-06T12:04:49.493Z,17.67
2018-11-06T12:07:17.636Z,17.77
2018-11-06T12:09:45.956Z,18.00
2018-11-06T12:12:14.156Z,17.57
2018-11-06T12:14:42.416Z,16.40
2018-11-06T12:17:10.798Z,16.70
2018-11-06T12:19:39.077Z,17.07
2018-11-06T12:22:07.690Z,16.07
2018-11-06T12:24:36.390Z,16.00
2018-11-06T12:27:04.756Z,16.17
2018-11-06T12:29:33.037Z,16.33
2018-11-06T12:32:01.159Z,15.53
2018-11-06T12:34:29.428Z,16.93
2018-11-06T12:36:57.746Z,15.40
2018-11-06T12:39:26.011Z,16.53
2018-11-06T12:41:54.616Z,15.87
2018-11-06T12:44:22.816Z,16.07
2018-11-06T12:46:51.056Z,16.47
2018-11-06T12:49:19.322Z,15.67
2018-11-06T12:51:47.533Z,16.87
2018-11-06T12:54:15.847Z,15.30
2018-11-06T12:56:44.219Z,16.40
2018-11-06T12:59:12.487Z,15.20
2018-11-06T13:01:40.751Z,16.20
2018-11-06T13:04:09.247Z,17.27
2018-11-06T13:06:37.878Z,18.27
2018-11-06T13:09:08.987Z,15.23
2018-11-06T13:11:37.798Z,17.10
2018-11-06T13:14:06.327Z,17.77
2018-11-06T13:16:35.996Z,16.83
2018-11-06T13:19:06.776Z,17.97
2018-11-06T13:21:36.088Z,16.83
2018-11-06T13:24:09.756Z,16.40
2018-11-06T13:26:40.723Z,17.13
2018-11-06T13:29:09.315Z,16.17
2018-11-06T13:31:38.023Z,16.57
2018-11-06T13:34:07.323Z,18.17
2018-11-06T13:36:35.783Z,17.30
2018-11-06T13:39:07.363Z,16.90
2018-11-06T13:41:39.195Z,17.27
2018-11-06T13:44:14.594Z,16.53
2018-11-06T13:46:44.109Z,17.87
2018-11-06T13:49:12.581Z,16.57
2018-11-06T13:51:41.001Z,17.77
2018-11-06T13:54:09.321Z,18.40
2018-11-06T13:56:37.741Z,17.30
2018-11-06T13:59:07.861Z,17.57
2018-11-06T14:01:36.309Z,17.83
2018-11-06T14:04:05.793Z,17.60
2018-11-06T14:06:34.234Z,17.87
2018-11-06T14:09:02.707Z,17.57
2018-11-06T14:11:32.075Z,16.40
2018-11-06T14:14:00.346Z,17.13
2018-11-06T14:16:29.851Z,17.47
2018-11-06T14:18:58.331Z,16.67
2018-11-06T14:21:27.703Z,17.53
2018-11-06T14:23:57.363Z,17.57
2018-11-06T14:26:26.002Z,16.60
2018-11-06T14:28:56.014Z,15.97
2018-11-06T14:31:25.212Z,17.13
2018-11-06T14:33:56.263Z,18.30
2018-11-06T14:36:24.431Z,16.77
2018-11-06T14:38:52.671Z,17.30
2018-11-06T14:41:21.023Z,17.90
2018-11-06T14:43:49.242Z,18.13
2018-11-06T14:46:17.523Z,17.77
2018-11-06T14:48:45.817Z,16.93
2018-11-06T14:51:14.198Z,16.20
2018-11-06T14:53:42.427Z,17.53
2018-11-06T14:56:10.854Z,16.07
2018-11-06T14:58:38.966Z,15.50
2018-11-06T15:01:07.205Z,17.20
2018-11-06T15:03:35.297Z,16.03
2018-11-06T15:06:03.498Z,15.87
2018-11-06T15:08:31.866Z,16.30
2018-11-06T15:10:59.918Z,17.27
2018-11-06T15:13:28.265Z,16.70
2018-11-06T15:15:56.441Z,17.83
2018-11-06T15:18:24.666Z,18.07
2018-11-06T15:20:52.989Z,18.50
2018-11-06T15:23:21.366Z,19.23
2018-11-06T15:25:49.488Z,20.03
2018-11-06T15:28:17.734Z,19.47
2018-11-06T15:30:45.927Z,19.97
2018-11-06T15:33:14.166Z,20.33
2018-11-06T15:35:42.347Z,20.03
2018-11-06T15:38:10.886Z,19.67
2018-11-06T15:40:39.106Z,19.93
2018-11-06T15:43:07.386Z,18.50
2018-11-06T15:45:35.577Z,16.53
2018-11-06T15:48:03.925Z,19.00
2018-11-06T15:50:32.097Z,19.73
2018-11-06T15:53:00.331Z,19.40
2018-11-06T15:55:28.590Z,19.03
2018-11-06T15:57:56.790Z,21.23
2018-11-06T16:00:25.033Z,18.53
2018-11-06T16:02:53.670Z,20.20
2018-11-06T16:05:21.896Z,19.57
2018-11-06T16:07:50.449Z,18.83
2018-11-06T16:10:21.772Z,20.03
2018-11-06T16:12:50.249Z,19.70
2018-11-06T16:15:18.501Z,19.20
2018-11-06T16:17:46.973Z,20.77
2018-11-06T16:20:17.449Z,21.30
2018-11-06T16:22:45.749Z,19.80
2018-11-06T16:25:14.973Z,21.30
2018-11-06T16:27:43.621Z,21.00
2018-11-06T16:30:15.964Z,20.57
2018-11-06T16:32:44.321Z,20.17
2018-11-06T16:35:13.817Z,21.93
2018-11-06T16:37:42.472Z,20.10
2018-11-06T16:40:11.316Z,19.07
2018-11-06T16:42:40.273Z,22.63
2018-11-06T16:45:10.921Z,20.47
2018-11-06T16:47:39.215Z,21.90
2018-11-06T16:50:08.658Z,21.80
2018-11-06T16:52:36.966Z,22.17
2018-11-06T16:55:05.460Z,20.57
2018-11-06T16:57:33.666Z,21.67
2018-11-06T17:00:02.042Z,22.23
2018-11-06T17:02:30.140Z,21.17
2018-11-06T17:04:58.387Z,20.70
2018-11-06T17:07:26.627Z,19.67
2018-11-06T17:09:54.793Z,18.20
2018-11-06T17:12:22.973Z,20.07
2018-11-06T17:14:51.147Z,21.37
2018-11-06T17:17:19.313Z,19.80
2018-11-06T17:19:47.552Z,21.07
2018-11-06T17:22:15.818Z,22.33
2018-11-06T17:24:44.031Z,24.83
2018-11-06T17:27:12.218Z,24.23
2018-11-06T17:29:40.430Z,22.37
2018-11-06T17:32:08.643Z,25.37
2018-11-06T17:34:36.960Z,25.30
2018-11-06T17:37:05.618Z,22.43
2018-11-06T17:39:34.015Z,21.20
2018-11-06T17:42:02.247Z,20.77
2018-11-06T17:44:30.503Z,21.23
2018-11-06T17:46:58.455Z,23.10
2018-11-06T17:49:26.540Z,22.07
2018-11-06T17:51:54.549Z,24.77
2018-11-06T17:54:22.628Z,24.00
2018-11-06T17:56:50.647Z,25.80
2018-11-06T17:59:18.748Z,27.23
2018-11-06T18:01:46.747Z,26.77
2018-11-06T18:04:14.886Z,26.20
2018-11-06T18:06:42.790Z,27.10
2018-11-06T18:09:12.294Z,24.03
2018-11-06T18:11:40.319Z,25.03
2018-11-06T18:14:08.492Z,20.80
2018-11-06T18:16:36.671Z,20.80
2018-11-06T18:19:04.962Z,20.43
2018-11-06T18:21:33.212Z,20.47
2018-11-06T18:24:01.480Z,22.23
2018-11-06T18:26:29.812Z,23.67
2018-11-06T18:28:58.100Z,26.10
2018-11-06T18:31:26.337Z,28.47
2018-11-06T18:33:54.812Z,28.63
2018-11-06T18:36:23.169Z,26.03
2018-11-06T18:38:51.599Z,24.93
2018-11-06T18:41:20.027Z,27.70
2018-11-06T18:43:48.617Z,27.53
2018-11-06T18:46:16.985Z,26.87
2018-11-06T18:48:45.494Z,25.00
2018-11-06T18:51:13.873Z,24.70
2018-11-06T18:53:42.341Z,27.10
2018-11-06T18:56:10.714Z,25.10
2018-11-06T18:58:39.163Z,27.33
2018-11-06T19:01:07.549Z,28.33
2018-11-06T19:03:36.618Z,27.57
2018-11-06T19:06:05.144Z,24.17
2018-11-06T19:08:33.517Z,24.87
2018-11-06T19:11:02.037Z,24.87
2018-11-06T19:13:30.447Z,23.03
2018-11-06T19:15:58.854Z,25.57
2018-11-06T19:18:27.230Z,21.60
2018-11-06T19:20:55.637Z,26.93
2018-11-06T19:23:24.150Z,22.77
2018-11-06T19:25:52.630Z,26.80
2018-11-06T19:28:21.049Z,28.13
2018-11-06T19:30:49.597Z,27.97
2018-11-06T19:33:18.096Z,27.13
2018-11-06T19:35:47.236Z,28.03
2018-11-06T19:38:15.775Z,26.83
2018-11-06T19:40:44.412Z,25.20
2018-11-06T19:43:12.893Z,25.00
2018-11-06T19:45:41.498Z,25.07
2018-11-06T19:48:10.175Z,24.93
2018-11-06T19:50:38.728Z,23.83
2018-11-06T19:53:07.162Z,23.60
2018-11-06T19:55:35.691Z,22.27
2018-11-06T19:58:05.480Z,26.50
2018-11-06T20:00:34.556Z,25.80
2018-11-06T20:03:03.500Z,23.17
2018-11-06T20:05:32.840Z,24.93
2018-11-06T20:08:01.438Z,21.10
2018-11-06T20:10:30.398Z,21.33
2018-11-06T20:12:59.592Z,22.93
2018-11-06T20:15:28.507Z,23.07
2018-11-06T20:17:58.077Z,24.53
2018-11-06T20:20:28.077Z,25.37
2018-11-06T20:22:57.278Z,26.17
2018-11-06T20:25:26.258Z,26.30
2018-11-06T20:27:55.202Z,23.63
2018-11-06T20:30:25.113Z,25.37
2018-11-06T20:32:55.106Z,24.77
2018-11-06T20:35:23.754Z,60.73
2018-11-06T20:37:53.035Z,25.37
2018-11-06T20:40:23.852Z,23.50
2018-11-06T20:42:53.046Z,23.17
2018-11-06T20:45:22.864Z,24.00
2018-11-06T20:47:51.754Z,25.27
2018-11-06T20:50:22.015Z,23.97
2018-11-06T20:52:50.891Z,24.60
2018-11-06T20:55:19.853Z,24.70
2018-11-06T20:57:51.720Z,26.50
2018-11-06T21:00:23.964Z,23.53
2018-11-06T21:02:53.981Z,21.10
2018-11-06T21:05:22.646Z,25.67
2018-11-06T21:07:51.212Z,25.00
2018-11-06T21:10:21.327Z,26.00
2018-11-06T21:12:49.856Z,26.83
2018-11-06T21:15:18.455Z,24.57
2018-11-06T21:17:47.018Z,25.40
2018-11-06T21:20:16.218Z,24.60
2018-11-06T21:22:44.580Z,24.53
2018-11-06T21:25:13.177Z,21.43
2018-11-06T21:27:42.268Z,20.57
2018-11-06T21:30:13.152Z,20.10
2018-11-06T21:32:42.717Z,19.47
2018-11-06T21:35:11.213Z,19.63
2018-11-06T21:37:40.063Z,21.77
2018-11-06T21:40:10.522Z,20.87
2018-11-06T21:42:38.800Z,21.27
2018-11-06T21:45:08.071Z,23.67
2018-11-06T21:47:36.196Z,23.13
2018-11-06T21:50:05.240Z,21.20
2018-11-06T21:52:33.407Z,23.53
2018-11-06T21:55:01.424Z,23.13
2018-11-06T21:57:29.588Z,22.63
2018-11-06T21:59:57.687Z,25.23
2018-11-06T22:02:25.739Z,23.30
2018-11-06T22:04:53.728Z,19.90
2018-11-06T22:07:21.883Z,22.03
2018-11-06T22:09:50.102Z,21.50
2018-11-06T22:12:19.247Z,23.83
2018-11-06T22:14:48.153Z,26.43
2018-11-06T22:17:17.513Z,22.90
2018-11-06T22:19:45.628Z,20.37
2018-11-06T22:22:13.716Z,20.10
2018-11-06T22:24:41.718Z,21.53
2018-11-06T22:27:09.781Z,16.40
2018-11-06T22:29:37.764Z,17.37
2018-11-06T22:32:05.852Z,18.57
2018-11-06T22:34:33.904Z,18.57
2018-11-06T22:37:02.062Z,21.20
2018-11-06T22:39:30.069Z,27.57
2018-11-06T22:41:58.114Z,24.70
2018-11-06T22:44:26.104Z,27.27
2018-11-06T22:46:54.146Z,26.27
2018-11-06T22:49:22.249Z,25.40
2018-11-06T22:51:50.272Z,26.37
2018-11-06T22:54:18.254Z,28.03
2018-11-06T22:56:46.666Z,24.60
2018-11-06T22:59:14.633Z,24.77
2018-11-06T23:01:42.694Z,25.83
2018-11-06T23:04:10.666Z,22.87
2018-11-06T23:06:38.773Z,21.73
2018-11-06T23:09:08.933Z,23.70
2018-11-06T23:11:37.068Z,23.07
2018-11-06T23:14:05.193Z,22.60
2018-11-06T23:16:33.253Z,22.73
2018-11-06T23:19:01.265Z,21.33
2018-11-06T23:21:29.415Z,22.40
2018-11-06T23:23:57.452Z,22.17
2018-11-06T23:26:25.559Z,23.43
2018-11-06T23:28:53.596Z,21.53
2018-11-06T23:31:21.618Z,16.00
2018-11-06T23:33:49.665Z,17.07
2018-11-06T23:36:17.732Z,15.60
2018-11-06T23:38:45.801Z,16.47
2018-11-06T23:41:13.870Z,18.10
2018-11-06T23:43:41.940Z,18.50
2018-11-06T23:46:09.920Z,21.43
2018-11-06T23:48:37.925Z,21.93
2018-11-06T23:51:06.000Z,20.20
2018-11-06T23:53:34.012Z,20.00
2018-11-06T23:56:01.970Z,20.83
2018-11-06T23:58:29.967Z,22.17
